Time;durP1;ratioP1;P1;durP2;ratioP2;P2;SDS_P1;SDS_P2;PMS_P1;PMS_P2;Temp;Humidity;BMP_temperature;BMP_pressure;BME280_temperature;BME280_humidity;BME280_pressure;Samples;Min_cycle;Max_cycle;Signal;HPM_P1;HPM_P2
2022/11/01 00:01:11;;;;;;;9.05;2.80;;;;;;;18.08;38.27;95968.88;5069456;28;20413;-63
2022/11/01 00:03:36;;;;;;;10.38;2.78;;;;;;;17.98;39.01;95959.28;5069596;28;20062;-63
2022/11/01 00:06:02;;;;;;;6.18;2.85;;;;;;;17.59;40.71;95963.00;5070494;28;20032;-63
2022/11/01 00:08:28;;;;;;;3.47;2.15;;;;;;;17.40;40.65;95962.47;5070533;28;20476;-66
2022/11/01 00:11:01;;;;;;;13.13;2.42;;;;;;;17.49;40.94;95962.38;5070574;28;20037;-65
2022/11/01 00:13:26;;;;;;;7.28;2.22;;;;;;;17.36;40.55;95961.19;5071239;28;20152;-64
2022/11/01 00:15:52;;;;;;;3.00;1.73;;;;;;;17.11;42.28;95958.66;5070446;28;20111;-65
2022/11/01 00:18:17;;;;;;;5.88;2.30;;;;;;;16.90;44.69;95959.28;5052439;28;20028;-64
2022/11/01 00:20:43;;;;;;;3.50;2.33;;;;;;;16.65;45.37;95947.94;5068853;28;20028;-65
2022/11/01 00:23:08;;;;;;;10.35;2.78;;;;;;;16.68;44.18;95947.56;5070922;28;20078;-65
2022/11/01 00:25:35;;;;;;;5.05;2.67;;;;;;;16.44;46.46;95939.56;5070388;28;20040;-66
2022/11/01 00:28:00;;;;;;;8.07;2.42;;;;;;;16.14;48.83;95938.50;5070688;28;20046;-60
2022/11/01 00:30:25;;;;;;;5.68;2.38;;;;;;;15.82;50.34;95940.22;5069780;28;20107;-63
2022/11/01 00:32:51;;;;;;;7.40;2.65;;;;;;;15.61;51.44;95933.63;5070918;28;20052;-62
2022/11/01 00:35:16;;;;;;;5.18;2.75;;;;;;;15.38;53.72;95917.53;5069610;28;20041;-63
2022/11/01 00:37:41;;;;;;;7.45;3.10;;;;;;;15.26;55.80;95927.66;5069799;28;20032;-63
2022/11/01 00:40:07;;;;;;;9.57;3.05;;;;;;;15.08;57.64;95933.13;5069360;28;20550;-63
2022/11/01 00:42:33;;;;;;;4.47;2.55;;;;;;;14.82;58.60;95931.44;5070487;28;20040;-63
2022/11/01 00:44:58;;;;;;;12.95;3.03;;;;;;;14.59;61.38;95932.81;5069324;28;20418;-62
2022/11/01 00:47:24;;;;;;;10.52;2.83;;;;;;;14.43;63.03;95940.69;5069602;28;20029;-69
2022/11/01 00:49:49;;;;;;;8.13;3.25;;;;;;;14.24;64.08;95936.50;5070014;28;20064;-65
2022/11/01 00:52:15;;;;;;;7.88;2.60;;;;;;;14.23;62.96;95940.94;5072767;28;20028;-65
2022/11/01 00:54:40;;;;;;;7.20;2.75;;;;;;;14.15;64.34;95948.88;5069807;28;20033;-65
2022/11/01 00:57:06;;;;;;;8.30;3.08;;;;;;;14.15;64.36;95951.50;5068813;28;20043;-64
2022/11/01 00:59:31;;;;;;;7.32;2.67;;;;;;;14.07;64.97;95948.84;5069787;28;20562;-65
2022/11/01 01:01:56;;;;;;;7.13;3.53;;;;;;;13.99;64.36;95947.78;5069569;28;20023;-65
2022/11/01 01:04:22;;;;;;;7.03;2.60;;;;;;;13.95;65.43;95951.75;5069928;28;20544;-61
2022/11/01 01:06:47;;;;;;;8.10;2.75;;;;;;;13.89;65.58;95950.53;5069538;28;20029;-62
2022/11/01 01:09:12;;;;;;;11.68;3.45;;;;;;;13.86;66.37;95942.91;5067984;28;20064;-65
2022/11/01 01:11:38;;;;;;;8.88;3.47;;;;;;;14.05;64.97;95948.97;5069039;28;20540;-65
2022/11/01 01:14:03;;;;;;;5.55;2.78;;;;;;;14.06;65.24;95961.22;5069689;28;20085;-65
2022/11/01 01:16:28;;;;;;;10.35;2.67;;;;;;;13.95;66.26;95954.38;5069588;28;20037;-65
2022/11/01 01:18:54;;;;;;;9.57;2.97;;;;;;;13.91;66.98;95966.28;5069338;28;20111;-65
2022/11/01 01:21:20;;;;;;;8.85;3.13;;;;;;;13.81;68.04;95976.97;5068313;28;20051;-65
2022/11/01 01:23:47;;;;;;;6.30;2.92;;;;;;;13.73;69.94;95983.03;5069672;28;20521;-65
2022/11/01 01:26:12;;;;;;;9.68;3.55;;;;;;;13.68;70.09;95985.31;5069104;28;20498;-70
2022/11/01 01:28:38;;;;;;;7.47;3.63;;;;;;;13.48;72.37;95991.75;5069568;28;20039;-69
2022/11/01 01:31:08;;;;;;;6.38;3.70;;;;;;;13.34;72.34;95996.56;5069230;28;20052;-69
2022/11/01 01:33:33;;;;;;;12.23;3.65;;;;;;;13.29;72.88;96010.25;5066440;28;20035;-69
2022/11/01 01:36:00;;;;;;;6.43;3.65;;;;;;;13.22;74.32;96013.66;5068524;28;20029;-70
2022/11/01 01:38:25;;;;;;;8.20;3.60;;;;;;;12.90;76.50;96021.09;5068210;28;20101;-70
2022/11/01 01:40:51;;;;;;;11.32;4.50;;;;;;;12.83;77.71;96031.41;5069466;28;20107;-70
2022/11/01 01:43:16;;;;;;;10.65;4.22;;;;;;;12.90;77.81;96043.03;5066607;28;20039;-70
2022/11/01 01:45:42;;;;;;;14.40;4.55;;;;;;;12.74;78.77;96050.81;5068450;28;20486;-63
2022/11/01 01:48:26;;;;;;;6.28;3.78;;;;;;;12.69;77.41;96060.97;5068615;28;20470;-65
2022/11/01 01:51:02;;;;;;;4.63;3.95;;;;;;;12.85;76.66;96070.91;5068527;28;20036;-65
2022/11/01 01:53:33;;;;;;;7.32;4.15;;;;;;;12.95;75.53;96060.28;5071140;28;20024;-65
2022/11/01 01:56:06;;;;;;;7.47;4.13;;;;;;;12.95;77.53;96055.00;5065480;28;20028;-65
2022/11/01 01:58:55;;;;;;;10.35;4.00;;;;;;;13.11;78.10;96070.22;5067645;28;20044;-65
2022/11/01 02:01:20;;;;;;;9.27;3.75;;;;;;;13.10;78.19;96068.56;5068288;28;20162;-65
2022/11/01 02:03:47;;;;;;;10.73;3.58;;;;;;;13.18;77.73;96066.84;5068954;28;20108;-65
2022/11/01 02:06:18;;;;;;;7.35;4.38;;;;;;;13.17;80.19;96059.03;5067446;28;20032;-65
2022/11/01 02:08:48;;;;;;;14.82;4.65;;;;;;;13.11;81.63;96080.78;5069015;28;20039;-65
2022/11/01 02:11:16;;;;;;;9.85;4.32;;;;;;;13.11;81.90;96080.78;5066621;28;20387;-65
2022/11/01 02:13:41;;;;;;;7.30;3.53;;;;;;;13.10;84.13;96087.88;5069308;28;20051;-64
2022/11/01 02:16:25;;;;;;;10.73;4.07;;;;;;;12.94;86.08;96096.44;5068558;28;20058;-64
2022/11/01 02:19:12;;;;;;;11.80;4.45;;;;;;;12.83;86.68;96100.13;5067122;28;20032;-65
2022/11/01 02:21:50;;;;;;;12.82;4.30;;;;;;;12.80;88.17;96104.84;5062590;28;20073;-64
2022/11/01 02:24:34;;;;;;;11.90;4.88;;;;;;;12.70;90.44;96120.72;5068221;28;20032;-61
2022/11/01 02:27:38;;;;;;;7.32;4.68;;;;;;;12.53;94.50;96143.44;5064777;28;20049;-62
2022/11/01 02:30:10;;;;;;;10.07;4.70;;;;;;;12.48;94.05;96156.25;5064937;28;20033;-61
2022/11/01 02:33:01;;;;;;;10.68;5.05;;;;;;;12.42;100.00;96155.00;5067798;28;20025;-61
2022/11/01 02:35:47;;;;;;;14.70;5.03;;;;;;;12.45;99.71;96175.84;5068835;28;20043;-61
2022/11/01 02:38:25;;;;;;;10.00;4.53;;;;;;;12.48;100.00;96186.13;5068317;28;20032;-61
2022/11/01 02:41:12;;;;;;;8.40;4.60;;;;;;;12.37;100.00;96194.22;5068217;28;20040;-66
2022/11/01 02:43:49;;;;;;;12.65;5.20;;;;;;;12.23;100.00;96198.13;5067002;28;20453;-69
2022/11/01 02:49:16;;;;;;;9.85;5.25;;;;;;;12.01;100.00;96211.44;5034038;28;20040;-59
2022/11/01 02:51:43;;;;;;;14.73;4.75;;;;;;;11.97;100.00;96215.31;5068590;28;20036;-59
2022/11/01 02:54:19;;;;;;;9.50;4.97;;;;;;;12.02;100.00;96228.94;5070558;28;20627;-59
2022/11/01 02:56:44;;;;;;;12.32;5.13;;;;;;;11.99;100.00;96237.09;5068470;28;20028;-59
2022/11/01 02:59:18;;;;;;;16.92;5.22;;;;;;;12.02;100.00;96246.59;5071598;28;20032;-59
2022/11/01 03:01:53;;;;;;;13.77;5.07;;;;;;;12.02;100.00;96247.41;5070530;28;20039;-64
2022/11/01 03:04:19;;;;;;;;;;;;;;;11.97;100.00;96246.16;5070437;28;20504;-67
2022/11/01 03:06:50;;;;;;;13.23;5.63;;;;;;;11.92;100.00;96256.25;5072486;28;19913;-66
2022/11/01 03:09:15;;;;;;;16.95;5.60;;;;;;;11.90;100.00;96262.50;5072333;28;20793;-67
2022/11/01 03:12:01;;;;;;;12.48;6.32;;;;;;;11.88;100.00;96256.53;5071642;28;20032;-67
2022/11/01 03:14:50;;;;;;;11.40;5.95;;;;;;;11.90;100.00;96257.22;5070343;28;20024;-67
2022/11/01 03:17:31;;;;;;;11.27;5.70;;;;;;;11.92;100.00;96259.75;5071273;28;20045;-67
2022/11/01 03:20:46;;;;;;;12.02;5.93;;;;;;;11.92;100.00;96249.19;5053305;28;20452;-63
2022/11/01 03:23:14;;;;;;;11.38;6.22;;;;;;;11.82;100.00;96253.59;5071863;28;20201;-67
2022/11/01 03:25:46;;;;;;;17.45;6.30;;;;;;;11.78;100.00;96258.34;5071708;28;20037;-68
2022/11/01 03:28:27;;;;;;;15.25;6.60;;;;;;;11.79;100.00;96265.28;5070589;28;20414;-68
2022/11/01 03:31:01;;;;;;;23.83;6.82;;;;;;;11.77;100.00;96274.28;5069443;28;20089;-68
2022/11/01 03:33:30;;;;;;;16.70;6.68;;;;;;;11.69;100.00;96267.88;5071350;28;20464;-68
2022/11/01 03:36:02;;;;;;;13.38;6.40;;;;;;;11.63;100.00;96278.13;5071323;28;20039;-68
2022/11/01 03:38:31;;;;;;;19.92;7.53;;;;;;;11.60;100.00;96284.50;5071349;28;20041;-66
2022/11/01 03:41:01;;;;;;;13.93;5.65;;;;;;;11.61;100.00;96281.75;5070991;28;20033;-63
2022/11/01 03:43:30;;;;;;;14.85;6.05;;;;;;;11.60;100.00;96287.13;5070524;28;20391;-64
2022/11/01 03:45:56;;;;;;;12.55;6.32;;;;;;;11.57;100.00;96290.03;5070347;28;20068;-64
2022/11/01 03:48:22;;;;;;;17.83;6.78;;;;;;;11.55;100.00;96282.28;5063485;28;20508;-64
2022/11/01 03:50:48;;;;;;;13.27;6.43;;;;;;;11.54;100.00;96280.63;5071321;28;20044;-64
2022/11/01 03:53:14;;;;;;;9.65;5.90;;;;;;;11.55;100.00;96274.38;5070577;28;20086;-64
2022/11/01 03:55:40;;;;;;;15.13;6.35;;;;;;;11.57;100.00;96276.84;5071395;28;20036;-64
2022/11/01 03:58:06;;;;;;;13.40;6.63;;;;;;;11.54;100.00;96277.13;5044871;28;20032;-67
2022/11/01 04:00:40;;;;;;;17.88;7.35;;;;;;;11.53;100.00;96273.69;5062906;28;20067;-64
2022/11/01 04:03:06;;;;;;;10.55;6.28;;;;;;;11.55;100.00;96270.88;5069859;28;20035;-64
2022/11/01 04:05:33;;;;;;;17.05;6.90;;;;;;;11.52;100.00;96273.78;5067575;28;20037;-64
2022/11/01 04:07:59;;;;;;;13.32;6.47;;;;;;;11.48;100.00;96278.50;5069613;28;20024;-64
2022/11/01 04:10:25;;;;;;;13.75;7.47;;;;;;;11.49;100.00;96281.97;5070423;28;20097;-64
2022/11/01 04:12:51;;;;;;;13.63;8.18;;;;;;;11.45;100.00;96276.97;5070556;28;20040;-63
2022/11/01 04:21:01;;;;;;;18.10;6.93;;;;;;;11.45;100.00;96269.06;5070641;28;20051;-67
2022/11/01 04:23:26;;;;;;;12.63;6.32;;;;;;;11.46;100.00;96273.38;5070523;28;20047;-66
2022/11/01 04:25:52;;;;;;;20.10;6.32;;;;;;;11.42;100.00;96264.06;5069791;28;20040;-66
2022/11/01 04:28:17;;;;;;;18.83;6.70;;;;;;;11.44;100.00;96263.91;5070422;28;20122;-66
2022/11/01 04:30:43;;;;;;;11.80;6.13;;;;;;;11.42;100.00;96265.84;5070584;28;20036;-66
2022/11/01 04:33:08;;;;;;;14.90;6.40;;;;;;;11.45;100.00;96268.22;5070035;28;20035;-66
2022/11/01 04:35:37;;;;;;;15.35;5.70;;;;;;;11.44;100.00;96266.53;5069846;28;20032;-66
2022/11/01 04:38:03;;;;;;;18.98;6.22;;;;;;;11.48;100.00;96265.31;5061950;28;20036;-65
2022/11/01 04:40:29;;;;;;;9.52;5.78;;;;;;;11.46;100.00;96262.81;5070078;28;20493;-67
2022/11/01 04:42:55;;;;;;;12.90;6.13;;;;;;;11.38;100.00;96265.28;5069749;28;20050;-66
2022/11/01 04:45:20;;;;;;;16.13;7.10;;;;;;;11.34;100.00;96270.97;5069489;28;20052;-66
2022/11/01 04:47:52;;;;;;;11.07;6.03;;;;;;;11.33;100.00;96267.47;5070219;28;20038;-65
2022/11/01 04:50:21;;;;;;;12.63;6.15;;;;;;;11.34;100.00;96261.22;5061482;28;20037;-66
2022/11/01 04:52:47;;;;;;;14.40;6.40;;;;;;;11.38;100.00;96254.72;5067629;28;20103;-66
2022/11/01 04:55:12;;;;;;;11.05;5.95;;;;;;;11.33;100.00;96262.19;5067815;28;20036;-65
2022/11/01 04:57:41;;;;;;;15.30;6.20;;;;;;;11.31;100.00;96261.50;5069828;28;20025;-66
2022/11/01 05:00:11;;;;;;;15.85;7.45;;;;;;;11.32;100.00;96274.56;5069898;28;20379;-66
2022/11/01 05:02:38;;;;;;;12.82;6.32;;;;;;;11.37;100.00;96286.50;5069038;28;20654;-65
2022/11/01 05:05:05;;;;;;;12.63;5.95;;;;;;;11.50;100.00;96286.28;5063817;28;20408;-66
2022/11/01 05:07:30;;;;;;;14.02;6.93;;;;;;;11.42;100.00;96286.94;5068462;28;20477;-65
2022/11/01 05:09:56;;;;;;;13.63;6.55;;;;;;;11.37;100.00;96287.31;5052055;28;20103;-65
2022/11/01 05:12:21;;;;;;;14.23;7.18;;;;;;;11.36;100.00;96295.38;5061261;28;20132;-65
2022/11/01 05:14:47;;;;;;;15.93;6.32;;;;;;;11.37;100.00;96297.88;5066441;28;20037;-65
2022/11/01 05:17:12;;;;;;;12.07;6.88;;;;;;;11.34;100.00;96297.31;5060590;28;20028;-64
2022/11/01 05:19:37;;;;;;;10.80;6.43;;;;;;;11.34;100.00;96306.03;5069661;28;20068;-65
2022/11/01 05:22:03;;;;;;;12.95;6.20;;;;;;;11.33;100.00;96307.00;5068582;28;20085;-64
2022/11/01 05:24:28;;;;;;;10.45;5.95;;;;;;;11.37;100.00;96303.16;5069868;28;20043;-65
2022/11/01 05:26:54;;;;;;;9.55;6.15;;;;;;;11.35;100.00;96301.63;5069311;28;20029;-64
2022/11/01 05:29:19;;;;;;;10.02;5.53;;;;;;;11.33;100.00;96304.38;5069216;28;20095;-64
2022/11/01 05:31:45;;;;;;;10.38;6.05;;;;;;;11.31;100.00;96301.03;5069623;28;20559;-65
2022/11/01 05:34:10;;;;;;;12.40;7.32;;;;;;;11.27;100.00;96305.75;5068563;28;20020;-65
2022/11/01 05:36:36;;;;;;;11.30;6.78;;;;;;;11.27;100.00;96299.66;5068436;28;20110;-65
2022/11/01 05:39:01;;;;;;;13.20;7.07;;;;;;;11.28;100.00;96303.94;5068455;28;20405;-68
2022/11/01 05:41:26;;;;;;;15.30;7.30;;;;;;;11.29;100.00;96295.91;5068784;28;20047;-68
2022/11/01 05:43:52;;;;;;;14.00;7.28;;;;;;;11.23;100.00;96312.25;5068448;28;20033;-68
2022/11/01 05:46:17;;;;;;;13.32;7.38;;;;;;;11.18;100.00;96310.03;5068496;28;20032;-68
2022/11/01 05:48:43;;;;;;;12.00;6.78;;;;;;;11.22;100.00;96301.84;5069022;28;20028;-68
2022/11/01 05:51:09;;;;;;;14.02;8.32;;;;;;;11.18;100.00;96304.75;5069227;28;20043;-68
2022/11/01 05:53:35;;;;;;;11.10;7.53;;;;;;;11.16;100.00;96295.28;5069080;28;20449;-60
2022/11/01 05:56:00;;;;;;;15.27;7.25;;;;;;;11.16;100.00;96290.00;5068602;28;20040;-64
2022/11/01 05:58:26;;;;;;;14.63;8.38;;;;;;;11.19;100.00;96284.47;5066589;28;20549;-59
2022/11/01 06:01:00;;;;;;;14.35;8.30;;;;;;;11.14;100.00;96287.50;5068834;28;20036;-59
2022/11/01 06:03:26;;;;;;;10.88;8.35;;;;;;;11.11;100.00;96277.22;5068416;28;20090;-59
2022/11/01 06:05:51;;;;;;;7.88;5.88;;;;;;;11.12;100.00;96280.72;5067455;28;20036;-59
2022/11/01 06:08:17;;;;;;;11.02;6.25;;;;;;;11.09;100.00;96271.25;5067336;28;20418;-59
2022/11/01 06:10:42;;;;;;;17.23;6.68;;;;;;;11.11;100.00;96274.59;5067695;28;20033;-59
2022/11/01 06:13:08;;;;;;;11.95;6.40;;;;;;;11.11;100.00;96268.50;5067619;28;20719;-59
2022/11/01 06:15:33;;;;;;;12.60;7.72;;;;;;;11.05;100.00;96264.59;5068025;28;20516;-68
2022/11/01 06:17:59;;;;;;;11.80;7.20;;;;;;;11.02;100.00;96259.56;5069141;28;20421;-64
2022/11/01 06:20:26;;;;;;;14.65;7.93;;;;;;;11.00;100.00;96261.50;5067936;28;20032;-64
2022/11/01 06:22:51;;;;;;;9.63;6.93;;;;;;;10.94;100.00;96254.97;5068501;28;20041;-64
2022/11/01 06:25:17;;;;;;;10.73;6.50;;;;;;;10.94;100.00;96254.97;5068300;28;20395;-65
2022/11/01 06:27:42;;;;;;;10.52;6.85;;;;;;;10.96;100.00;96263.56;5068857;28;20040;-65
2022/11/01 06:30:09;;;;;;;12.85;6.68;;;;;;;10.97;100.00;96270.50;5067990;28;20028;-65
2022/11/01 06:32:34;;;;;;;12.30;8.95;;;;;;;10.97;100.00;96272.31;5070034;28;20041;-62
2022/11/01 06:34:59;;;;;;;11.10;8.23;;;;;;;10.97;100.00;96264.41;5071191;28;20038;-62
2022/11/01 06:37:25;;;;;;;9.10;8.10;;;;;;;10.97;100.00;96264.41;5071457;28;20060;-62
2022/11/01 06:39:50;;;;;;;11.55;8.07;;;;;;;10.99;100.00;96265.13;5072480;28;20490;-62
2022/11/01 06:42:15;;;;;;;9.40;6.93;;;;;;;11.03;100.00;96271.78;5072416;28;20226;-62
2022/11/01 06:44:41;;;;;;;13.30;7.95;;;;;;;11.15;100.00;96276.00;5072282;28;20063;-62
2022/11/01 06:47:06;;;;;;;10.00;7.63;;;;;;;11.10;100.00;96275.56;5073111;28;20111;-61
2022/11/01 06:49:31;;;;;;;15.73;8.52;;;;;;;11.01;100.00;96282.44;5069537;28;20529;-62
2022/11/01 06:51:57;;;;;;;15.32;9.20;;;;;;;10.93;100.00;96273.50;5072255;28;20558;-62
2022/11/01 06:54:23;;;;;;;13.40;8.70;;;;;;;10.89;100.00;96278.22;5071342;28;20417;-65
2022/11/01 06:56:48;;;;;;;12.50;8.88;;;;;;;10.88;100.00;96287.09;5072006;28;20028;-63
2022/11/01 06:59:15;;;;;;;14.00;8.65;;;;;;;10.84;100.00;96286.50;5071943;28;20033;-63
2022/11/01 07:01:41;;;;;;;14.73;8.30;;;;;;;10.85;100.00;96290.81;5065324;28;20522;-64
2022/11/01 07:04:07;;;;;;;12.70;7.63;;;;;;;10.81;100.00;96292.03;5072085;28;20040;-63
2022/11/01 07:06:32;;;;;;;12.65;8.18;;;;;;;10.83;100.00;96294.53;5064078;28;20367;-64
2022/11/01 07:08:58;;;;;;;8.65;7.75;;;;;;;10.78;100.00;96301.97;5070776;28;20040;-63
2022/11/01 07:11:23;;;;;;;13.20;8.18;;;;;;;10.79;100.00;96309.78;5071095;28;20407;-64
2022/11/01 07:13:49;;;;;;;10.07;8.95;;;;;;;10.84;100.00;96319.94;5072257;28;20498;-63
2022/11/01 07:16:14;;;;;;;14.18;8.90;;;;;;;10.90;100.00;96324.69;5070989;28;20043;-63
2022/11/01 07:18:40;;;;;;;12.80;10.00;;;;;;;10.85;100.00;96330.31;5068767;28;20434;-63
2022/11/01 07:21:05;;;;;;;14.10;10.68;;;;;;;10.82;100.00;96335.84;5071968;28;20486;-63
2022/11/01 07:23:30;;;;;;;12.98;11.52;;;;;;;10.80;100.00;96336.94;5071701;28;20028;-63
2022/11/01 07:25:56;;;;;;;17.05;11.52;;;;;;;10.77;100.00;96339.81;5071838;28;20097;-63
2022/11/01 07:28:22;;;;;;;16.35;12.38;;;;;;;10.81;100.00;96344.72;5071135;28;20743;-63
2022/11/01 07:30:52;;;;;;;18.40;13.63;;;;;;;10.81;100.00;96344.72;5070550;28;20409;-64
2022/11/01 07:33:18;;;;;;;22.67;18.20;;;;;;;10.82;100.00;96348.16;5062457;28;20024;-64
2022/11/01 07:35:43;;;;;;;20.38;16.05;;;;;;;10.81;100.00;96349.97;5071790;28;20607;-64
2022/11/01 07:38:10;;;;;;;16.85;13.27;;;;;;;10.84;100.00;96352.34;5071440;28;20040;-64
2022/11/01 07:40:35;;;;;;;16.77;12.60;;;;;;;10.83;100.00;96348.06;5071323;28;20040;-64
2022/11/01 07:43:01;;;;;;;15.05;12.13;;;;;;;10.84;100.00;96355.00;5070747;28;20039;-64
2022/11/01 07:45:29;;;;;;;16.85;13.73;;;;;;;10.88;100.00;96350.31;5069863;28;20044;-64
2022/11/01 07:48:05;;;;;;;17.33;13.15;;;;;;;10.89;100.00;96363.34;5071339;28;20490;-64
2022/11/01 07:50:32;;;;;;;21.35;12.30;;;;;;;10.87;100.00;96359.19;5071117;28;20510;-62
2022/11/01 07:53:13;;;;;;;16.60;12.00;;;;;;;10.89;100.00;96368.59;5070723;28;20059;-64
2022/11/01 07:55:39;;;;;;;13.93;11.25;;;;;;;10.95;100.00;96366.44;5069500;28;20068;-64
2022/11/01 07:58:05;;;;;;;16.13;11.63;;;;;;;10.95;100.00;96372.53;5071334;28;20660;-64
2022/11/01 08:00:31;;;;;;;13.40;11.82;;;;;;;10.96;100.00;96378.66;5071132;28;20120;-65
2022/11/01 08:03:05;;;;;;;15.18;13.15;;;;;;;10.96;100.00;96371.56;5069837;28;20028;-64
2022/11/01 08:05:30;;;;;;;16.75;14.27;;;;;;;10.97;100.00;96375.06;5070539;28;20068;-64
2022/11/01 08:07:56;;;;;;;16.15;13.90;;;;;;;11.01;100.00;96376.47;5070237;28;20517;-65
2022/11/01 08:10:21;;;;;;;17.10;13.63;;;;;;;11.05;100.00;96369.97;5070809;28;20742;-67
2022/11/01 08:12:47;;;;;;;18.17;12.55;;;;;;;11.11;100.00;96372.09;5070036;28;20033;-65
2022/11/01 08:15:12;;;;;;;13.38;10.70;;;;;;;11.18;100.00;96368.00;5069801;28;20036;-64
2022/11/01 08:17:37;;;;;;;18.38;12.73;;;;;;;11.24;100.00;96373.72;5067762;28;20041;-64
2022/11/01 08:20:04;;;;;;;19.08;12.57;;;;;;;11.25;100.00;96370.09;5071370;28;20041;-64
2022/11/01 08:22:29;;;;;;;20.23;11.98;;;;;;;11.32;100.00;96373.88;5070423;28;20031;-64
2022/11/01 08:24:55;;;;;;;11.73;9.75;;;;;;;11.38;100.00;96373.34;5069639;28;20040;-64
2022/11/01 08:27:20;;;;;;;12.90;9.02;;;;;;;11.43;100.00;96387.00;5070700;28;20414;-64
2022/11/01 08:29:46;;;;;;;12.27;9.73;;;;;;;11.44;100.00;96393.94;5070590;28;20166;-60
2022/11/01 08:32:11;;;;;;;15.63;10.82;;;;;;;11.48;100.00;96391.06;5070881;28;20058;-66
2022/11/01 08:34:37;;;;;;;14.27;11.05;;;;;;;11.44;100.00;96388.69;5070012;28;20036;-65
2022/11/01 08:37:02;;;;;;;14.25;12.07;;;;;;;11.45;100.00;96392.97;5070622;28;20078;-65
2022/11/01 08:39:27;;;;;;;17.23;11.68;;;;;;;11.45;100.00;96384.22;5067370;28;20032;-66
2022/11/01 08:41:53;;;;;;;13.73;11.52;;;;;;;11.43;100.00;96392.28;5067531;28;20052;-65
2022/11/01 08:44:19;;;;;;;16.33;11.80;;;;;;;11.46;100.00;96397.28;5067718;28;20175;-65
2022/11/01 08:46:45;;;;;;;13.43;12.00;;;;;;;11.50;100.00;96391.75;5068383;28;20037;-66
2022/11/01 08:49:12;;;;;;;17.40;12.35;;;;;;;11.48;100.00;96397.16;5068724;28;20031;-66
2022/11/01 08:51:38;;;;;;;13.02;11.27;;;;;;;11.49;100.00;96392.72;5068384;28;20036;-59
2022/11/01 08:54:04;;;;;;;16.20;11.48;;;;;;;11.50;100.00;96392.59;5071118;28;20478;-59
2022/11/01 08:56:30;;;;;;;22.20;12.10;;;;;;;11.52;100.00;96387.19;5068719;28;20464;-59
2022/11/01 08:58:57;;;;;;;13.02;10.50;;;;;;;11.55;100.00;96393.03;5068650;28;20119;-59
2022/11/01 09:01:25;;;;;;;16.05;12.50;;;;;;;11.58;100.00;96389.28;5067850;28;20158;-59
2022/11/01 09:03:56;;;;;;;12.88;10.80;;;;;;;11.65;100.00;96389.59;5068050;28;20082;-60
2022/11/01 09:06:21;;;;;;;11.68;10.45;;;;;;;11.72;100.00;96396.03;5067103;28;20521;-67
2022/11/01 09:08:47;;;;;;;13.48;10.80;;;;;;;11.87;100.00;96396.53;5068745;28;20037;-65
2022/11/01 09:11:13;;;;;;;10.95;8.90;;;;;;;12.02;100.00;96389.91;5068823;28;20029;-69
2022/11/01 09:13:38;;;;;;;11.50;9.40;;;;;;;12.16;100.00;96393.16;5069864;28;20175;-69
2022/11/01 09:16:05;;;;;;;12.10;10.15;;;;;;;12.35;100.00;96394.19;5068822;28;20075;-68
2022/11/01 09:18:31;;;;;;;10.23;9.15;;;;;;;12.59;100.00;96397.28;5069565;28;20044;-68
2022/11/01 09:20:56;;;;;;;8.70;6.95;;;;;;;12.92;100.00;96396.19;5069166;28;20041;-69
2022/11/01 09:23:21;;;;;;;5.95;5.35;;;;;;;13.26;100.00;96401.03;5061066;28;20033;-69
2022/11/01 09:25:47;;;;;;;10.13;7.10;;;;;;;13.48;100.00;96399.09;5069487;28;20037;-65
2022/11/01 09:28:13;;;;;;;8.25;7.45;;;;;;;13.54;100.00;96404.63;5069213;28;20040;-59
2022/11/01 09:30:39;;;;;;;10.35;7.15;;;;;;;13.54;100.00;96399.34;5069182;28;20086;-63
2022/11/01 09:33:05;;;;;;;9.05;5.70;;;;;;;13.59;100.00;96405.03;5067220;28;20029;-63
2022/11/01 09:35:31;;;;;;;7.07;5.00;;;;;;;13.54;100.00;96407.28;5068494;28;20052;-63
2022/11/01 09:37:58;;;;;;;9.02;6.18;;;;;;;13.53;100.00;96413.56;5067607;28;20094;-62
2022/11/01 09:40:24;;;;;;;9.18;5.80;;;;;;;13.50;100.00;96407.72;5067558;28;20036;-62
2022/11/01 09:42:51;;;;;;;8.23;4.75;;;;;;;13.34;100.00;96409.09;5043314;28;20061;-61
2022/11/01 09:45:20;;;;;;;8.90;4.88;;;;;;;13.40;100.00;96405.91;5066578;28;20039;-66
2022/11/01 09:47:53;;;;;;;6.72;5.63;;;;;;;13.48;100.00;96394.59;5066486;28;20585;-66
2022/11/01 09:50:37;;;;;;;9.52;5.85;;;;;;;13.55;100.00;96402.81;5064291;28;20036;-65
2022/11/01 09:53:07;;;;;;;6.55;4.57;;;;;;;13.67;100.00;96404.31;5065021;28;20027;-66
2022/11/01 09:55:55;;;;;;;5.97;4.43;;;;;;;13.60;100.00;96411.19;5041397;28;20038;-68
2022/11/01 09:59:03;;;;;;;7.30;4.80;;;;;;;13.49;100.00;96411.31;5063988;28;20033;-68
2022/11/01 10:01:41;;;;;;;7.53;5.53;;;;;;;13.44;100.00;96414.38;5066770;28;20040;-67
2022/11/01 10:04:43;;;;;;;7.97;5.20;;;;;;;13.53;100.00;96415.34;5062757;28;20029;-59
2022/11/01 10:07:30;;;;;;;8.48;4.13;;;;;;;13.90;100.00;96422.50;5021691;28;20111;-66
2022/11/01 10:10:10;;;;;;;5.00;2.95;;;;;;;14.16;100.00;96429.78;5025668;28;20024;-67
2022/11/01 10:12:47;;;;;;;4.43;3.67;;;;;;;14.43;100.00;96422.81;5064829;28;20731;-68
2022/11/01 10:15:41;;;;;;;4.35;2.92;;;;;;;14.49;100.00;96431.97;5064382;28;20036;-67
2022/11/01 10:18:13;;;;;;;4.38;3.15;;;;;;;14.46;100.00;96433.09;5052975;28;20119;-68
2022/11/01 10:20:40;;;;;;;3.20;2.90;;;;;;;14.53;100.00;96436.00;5056562;28;20094;-67
2022/11/01 10:23:05;;;;;;;5.40;2.70;;;;;;;14.62;100.00;96432.47;5060668;28;20041;-65
2022/11/01 10:25:34;;;;;;;4.15;2.65;;;;;;;14.61;100.00;96439.56;5066086;28;20070;-63
2022/11/01 10:28:14;;;;;;;4.40;2.83;;;;;;;14.70;100.00;96434.34;5065002;28;20494;-60
2022/11/01 10:30:46;;;;;;;3.88;3.08;;;;;;;14.70;100.00;96437.00;5064739;28;20055;-59
2022/11/01 10:33:33;;;;;;;4.32;3.10;;;;;;;14.65;100.00;96440.13;5065722;28;20116;-60
2022/11/01 10:36:03;;;;;;;3.92;2.65;;;;;;;14.73;100.00;96432.28;5065260;28;20048;-59
2022/11/01 10:38:44;;;;;;;5.50;3.20;;;;;;;14.69;100.00;96430.03;5065278;28;20041;-59
2022/11/01 10:41:47;;;;;;;3.33;2.33;;;;;;;14.77;100.00;96431.97;5065078;28;20503;-59
2022/11/01 10:44:20;;;;;;;3.13;2.90;;;;;;;14.84;100.00;96439.19;5003855;28;20613;-63
2022/11/01 10:46:48;;;;;;;2.92;2.60;;;;;;;14.88;100.00;96421.97;5053649;28;20049;-62
2022/11/01 10:49:27;;;;;;;3.60;2.45;;;;;;;14.86;100.00;96425.78;5068010;28;20048;-62
2022/11/01 10:51:59;;;;;;;4.72;2.88;;;;;;;14.97;100.00;96420.25;5067271;28;20109;-62
2022/11/01 10:54:27;;;;;;;4.10;2.53;;;;;;;14.92;100.00;96414.56;5067332;28;20107;-62
2022/11/01 10:56:57;;;;;;;4.90;1.80;;;;;;;15.00;100.00;96416.47;5065360;28;20037;-61
2022/11/01 10:59:34;;;;;;;2.25;1.95;;;;;;;15.26;100.00;96410.38;5065957;28;20028;-61
2022/11/01 11:02:05;;;;;;;3.20;2.22;;;;;;;15.40;100.00;96409.84;5072085;28;20032;-68
2022/11/01 11:04:30;;;;;;;2.88;2.28;;;;;;;15.58;99.22;96414.25;5067950;28;20046;-69
2022/11/01 11:06:56;;;;;;;4.65;3.30;;;;;;;15.81;98.71;96411.91;5067790;28;20033;-67
2022/11/01 11:09:33;;;;;;;9.30;2.88;;;;;;;16.01;97.35;96414.38;5070169;28;20041;-67
2022/11/01 11:12:08;;;;;;;3.55;2.30;;;;;;;16.01;95.45;96419.69;5065899;28;20120;-67
2022/11/01 11:14:35;;;;;;;2.20;2.00;;;;;;;15.99;94.86;96414.53;5048487;28;20067;-67
2022/11/01 11:17:02;;;;;;;7.22;2.40;;;;;;;16.27;95.13;96417.00;5067419;28;20040;-66
2022/11/01 11:19:28;;;;;;;5.25;2.28;;;;;;;16.13;94.96;96417.59;5068165;28;20643;-66
2022/11/01 11:21:54;;;;;;;4.45;2.80;;;;;;;15.94;96.77;96416.00;5072507;28;20039;-65
2022/11/01 11:24:23;;;;;;;7.55;3.65;;;;;;;15.85;98.95;96420.41;5069630;28;20098;-68
2022/11/01 11:26:51;;;;;;;4.03;3.53;;;;;;;15.82;99.53;96410.91;5070948;28;20510;-67
2022/11/01 11:29:26;;;;;;;8.15;4.10;;;;;;;15.84;100.00;96413.44;5070617;28;20028;-66
2022/11/01 11:31:56;;;;;;;;;;;;;;;15.75;100.00;96413.38;5065794;28;20604;-66
2022/11/01 11:34:28;;;;;;;5.15;4.30;;;;;;;15.74;100.00;96403.75;5072315;28;20003;-65
2022/11/01 11:36:54;;;;;;;8.10;4.57;;;;;;;15.66;100.00;96401.03;5069519;28;20036;-64
2022/11/01 11:39:24;;;;;;;6.60;4.35;;;;;;;15.52;100.00;96404.25;5070943;28;20032;-66